sensor_id;sensor_type;location;lat;lon;timestamp;P1;durP1;ratioP1;P2;durP2;ratioP2
71464;SDS011;59274;49.874;9.154;2023-05-10T00:01:55;1.97;;;1.13;;
71464;SDS011;59274;49.874;9.154;2023-05-10T00:04:21;1.80;;;1.17;;
71464;SDS011;59274;49.874;9.154;2023-05-10T00:06:46;2.40;;;1.33;;
71464;SDS011;59274;49.874;9.154;2023-05-10T00:09:12;1.73;;;0.93;;
71464;SDS011;59274;49.874;9.154;2023-05-10T00:11:37;1.88;;;0.90;;
71464;SDS011;59274;49.874;9.154;2023-05-10T00:14:03;2.67;;;1.13;;
71464;SDS011;59274;49.874;9.154;2023-05-10T00:16:28;2.20;;;0.90;;
71464;SDS011;59274;49.874;9.154;2023-05-10T00:18:54;1.23;;;0.80;;
71464;SDS011;59274;49.874;9.154;2023-05-10T00:21:19;0.82;;;0.80;;
71464;SDS011;59274;49.874;9.154;2023-05-10T00:23:44;0.83;;;0.83;;
71464;SDS011;59274;49.874;9.154;2023-05-10T00:26:10;1.73;;;1.03;;
71464;SDS011;59274;49.874;9.154;2023-05-10T00:28:36;0.60;;;0.50;;
71464;SDS011;59274;49.874;9.154;2023-05-10T00:31:01;0.80;;;0.43;;
71464;SDS011;59274;49.874;9.154;2023-05-10T00:33:27;0.73;;;0.63;;
71464;SDS011;59274;49.874;9.154;2023-05-10T00:35:53;0.53;;;0.53;;
71464;SDS011;59274;49.874;9.154;2023-05-10T00:38:18;0.70;;;0.67;;
71464;SDS011;59274;49.874;9.154;2023-05-10T00:40:44;0.30;;;0.30;;
71464;SDS011;59274;49.874;9.154;2023-05-10T00:43:09;0.67;;;0.60;;
71464;SDS011;59274;49.874;9.154;2023-05-10T00:45:35;0.50;;;0.50;;
71464;SDS011;59274;49.874;9.154;2023-05-10T00:48:01;0.52;;;0.52;;
71464;SDS011;59274;49.874;9.154;2023-05-10T00:50:28;2.03;;;0.98;;
71464;SDS011;59274;49.874;9.154;2023-05-10T00:52:54;0.80;;;0.47;;
71464;SDS011;59274;49.874;9.154;2023-05-10T00:55:20;1.27;;;0.43;;
71464;SDS011;59274;49.874;9.154;2023-05-10T00:57:46;0.60;;;0.40;;
71464;SDS011;59274;49.874;9.154;2023-05-10T01:00:12;0.75;;;0.30;;
71464;SDS011;59274;49.874;9.154;2023-05-10T01:02:42;0.52;;;0.50;;
71464;SDS011;59274;49.874;9.154;2023-05-10T01:05:09;0.65;;;0.50;;
71464;SDS011;59274;49.874;9.154;2023-05-10T01:07:34;0.50;;;0.50;;
71464;SDS011;59274;49.874;9.154;2023-05-10T01:09:59;0.38;;;0.38;;
71464;SDS011;59274;49.874;9.154;2023-05-10T01:12:25;0.40;;;0.40;;
71464;SDS011;59274;49.874;9.154;2023-05-10T01:14:51;1.00;;;0.70;;
71464;SDS011;59274;49.874;9.154;2023-05-10T01:17:17;0.30;;;0.30;;
71464;SDS011;59274;49.874;9.154;2023-05-10T01:19:42;0.60;;;0.60;;
71464;SDS011;59274;49.874;9.154;2023-05-10T01:27:50;0.73;;;0.70;;
71464;SDS011;59274;49.874;9.154;2023-05-10T01:36:03;0.45;;;0.43;;
71464;SDS011;59274;49.874;9.154;2023-05-10T01:38:44;0.97;;;0.67;;
71464;SDS011;59274;49.874;9.154;2023-05-10T01:44:01;0.60;;;0.60;;
71464;SDS011;59274;49.874;9.154;2023-05-10T01:46:34;0.50;;;0.50;;
71464;SDS011;59274;49.874;9.154;2023-05-10T01:49:02;0.57;;;0.57;;
71464;SDS011;59274;49.874;9.154;2023-05-10T01:51:36;1.10;;;0.80;;
71464;SDS011;59274;49.874;9.154;2023-05-10T01:54:06;0.70;;;0.70;;
71464;SDS011;59274;49.874;9.154;2023-05-10T01:56:33;0.50;;;0.50;;
71464;SDS011;59274;49.874;9.154;2023-05-10T01:59:01;0.73;;;0.55;;
71464;SDS011;59274;49.874;9.154;2023-05-10T02:01:29;2.65;;;1.02;;
71464;SDS011;59274;49.874;9.154;2023-05-10T02:03:55;0.67;;;0.67;;
71464;SDS011;59274;49.874;9.154;2023-05-10T02:06:23;0.40;;;0.40;;
71464;SDS011;59274;49.874;9.154;2023-05-10T02:08:50;0.50;;;0.50;;
71464;SDS011;59274;49.874;9.154;2023-05-10T02:11:18;0.60;;;0.60;;
71464;SDS011;59274;49.874;9.154;2023-05-10T02:13:47;0.57;;;0.50;;
71464;SDS011;59274;49.874;9.154;2023-05-10T02:16:14;0.60;;;0.60;;
71464;SDS011;59274;49.874;9.154;2023-05-10T02:18:42;0.95;;;0.80;;
71464;SDS011;59274;49.874;9.154;2023-05-10T02:21:08;0.88;;;0.63;;
71464;SDS011;59274;49.874;9.154;2023-05-10T02:23:35;0.70;;;0.52;;
71464;SDS011;59274;49.874;9.154;2023-05-10T02:26:02;0.45;;;0.40;;
71464;SDS011;59274;49.874;9.154;2023-05-10T02:28:30;0.87;;;0.60;;
71464;SDS011;59274;49.874;9.154;2023-05-10T02:30:58;0.82;;;0.75;;
71464;SDS011;59274;49.874;9.154;2023-05-10T02:33:24;0.60;;;0.50;;
71464;SDS011;59274;49.874;9.154;2023-05-10T02:35:50;0.40;;;0.40;;
71464;SDS011;59274;49.874;9.154;2023-05-10T02:38:16;0.80;;;0.60;;
71464;SDS011;59274;49.874;9.154;2023-05-10T02:40:45;0.88;;;0.60;;
71464;SDS011;59274;49.874;9.154;2023-05-10T02:43:13;0.77;;;0.47;;
71464;SDS011;59274;49.874;9.154;2023-05-10T02:45:41;1.17;;;0.80;;
71464;SDS011;59274;49.874;9.154;2023-05-10T02:48:11;0.70;;;0.60;;
71464;SDS011;59274;49.874;9.154;2023-05-10T02:50:37;0.50;;;0.50;;
71464;SDS011;59274;49.874;9.154;2023-05-10T02:53:09;0.87;;;0.70;;
71464;SDS011;59274;49.874;9.154;2023-05-10T02:55:40;0.70;;;0.60;;
71464;SDS011;59274;49.874;9.154;2023-05-10T02:58:07;0.80;;;0.80;;
71464;SDS011;59274;49.874;9.154;2023-05-10T03:00:32;0.50;;;0.50;;
71464;SDS011;59274;49.874;9.154;2023-05-10T03:02:58;0.60;;;0.60;;
71464;SDS011;59274;49.874;9.154;2023-05-10T03:05:23;0.50;;;0.50;;
71464;SDS011;59274;49.874;9.154;2023-05-10T03:07:49;0.67;;;0.43;;
71464;SDS011;59274;49.874;9.154;2023-05-10T03:10:15;2.53;;;0.80;;
71464;SDS011;59274;49.874;9.154;2023-05-10T03:15:27;0.63;;;0.63;;
71464;SDS011;59274;49.874;9.154;2023-05-10T03:20:48;0.40;;;0.40;;
71464;SDS011;59274;49.874;9.154;2023-05-10T03:25:52;0.75;;;0.65;;
71464;SDS011;59274;49.874;9.154;2023-05-10T03:28:18;0.70;;;0.70;;
71464;SDS011;59274;49.874;9.154;2023-05-10T03:30:45;0.82;;;0.80;;
71464;SDS011;59274;49.874;9.154;2023-05-10T03:33:11;1.08;;;0.77;;
71464;SDS011;59274;49.874;9.154;2023-05-10T03:35:38;0.77;;;0.63;;
71464;SDS011;59274;49.874;9.154;2023-05-10T03:38:03;0.65;;;0.50;;
71464;SDS011;59274;49.874;9.154;2023-05-10T03:40:29;0.80;;;0.60;;
71464;SDS011;59274;49.874;9.154;2023-05-10T03:42:56;1.27;;;0.80;;
71464;SDS011;59274;49.874;9.154;2023-05-10T03:45:23;0.60;;;0.60;;
71464;SDS011;59274;49.874;9.154;2023-05-10T03:47:48;0.97;;;0.63;;
71464;SDS011;59274;49.874;9.154;2023-05-10T03:50:14;0.77;;;0.67;;
71464;SDS011;59274;49.874;9.154;2023-05-10T03:52:39;1.10;;;0.60;;
71464;SDS011;59274;49.874;9.154;2023-05-10T03:55:05;0.85;;;0.80;;
71464;SDS011;59274;49.874;9.154;2023-05-10T03:57:31;1.30;;;0.70;;
71464;SDS011;59274;49.874;9.154;2023-05-10T03:59:56;0.60;;;0.57;;
71464;SDS011;59274;49.874;9.154;2023-05-10T04:02:22;0.53;;;0.50;;
71464;SDS011;59274;49.874;9.154;2023-05-10T04:04:47;0.87;;;0.77;;
71464;SDS011;59274;49.874;9.154;2023-05-10T04:07:13;0.77;;;0.77;;
71464;SDS011;59274;49.874;9.154;2023-05-10T04:09:39;0.90;;;0.80;;
71464;SDS011;59274;49.874;9.154;2023-05-10T04:12:05;1.00;;;0.73;;
71464;SDS011;59274;49.874;9.154;2023-05-10T04:14:30;0.73;;;0.70;;
71464;SDS011;59274;49.874;9.154;2023-05-10T04:16:56;1.17;;;0.80;;
71464;SDS011;59274;49.874;9.154;2023-05-10T04:19:21;0.97;;;0.67;;
71464;SDS011;59274;49.874;9.154;2023-05-10T04:21:47;1.73;;;0.80;;
71464;SDS011;59274;49.874;9.154;2023-05-10T04:24:12;0.60;;;0.50;;
71464;SDS011;59274;49.874;9.154;2023-05-10T04:26:37;1.63;;;0.97;;
71464;SDS011;59274;49.874;9.154;2023-05-10T04:29:03;1.48;;;0.73;;
71464;SDS011;59274;49.874;9.154;2023-05-10T04:31:28;0.90;;;0.73;;
71464;SDS011;59274;49.874;9.154;2023-05-10T04:33:54;0.73;;;0.70;;
71464;SDS011;59274;49.874;9.154;2023-05-10T04:36:19;4.30;;;0.80;;
71464;SDS011;59274;49.874;9.154;2023-05-10T04:38:44;1.13;;;0.80;;
71464;SDS011;59274;49.874;9.154;2023-05-10T04:41:10;1.00;;;0.77;;
71464;SDS011;59274;49.874;9.154;2023-05-10T04:43:36;1.20;;;1.10;;
71464;SDS011;59274;49.874;9.154;2023-05-10T04:46:03;1.00;;;0.77;;
71464;SDS011;59274;49.874;9.154;2023-05-10T04:48:29;2.95;;;0.93;;
71464;SDS011;59274;49.874;9.154;2023-05-10T04:50:54;0.70;;;0.60;;
71464;SDS011;59274;49.874;9.154;2023-05-10T04:53:20;1.58;;;0.80;;
71464;SDS011;59274;49.874;9.154;2023-05-10T04:55:46;1.47;;;1.00;;
71464;SDS011;59274;49.874;9.154;2023-05-10T04:58:11;2.47;;;1.08;;
71464;SDS011;59274;49.874;9.154;2023-05-10T05:00:37;1.50;;;0.90;;
71464;SDS011;59274;49.874;9.154;2023-05-10T05:03:03;1.70;;;1.00;;
71464;SDS011;59274;49.874;9.154;2023-05-10T05:05:28;1.50;;;1.17;;
71464;SDS011;59274;49.874;9.154;2023-05-10T05:07:53;0.85;;;0.82;;
71464;SDS011;59274;49.874;9.154;2023-05-10T05:10:19;1.20;;;0.87;;
71464;SDS011;59274;49.874;9.154;2023-05-10T05:12:44;1.07;;;0.80;;
71464;SDS011;59274;49.874;9.154;2023-05-10T05:15:10;1.63;;;1.20;;
71464;SDS011;59274;49.874;9.154;2023-05-10T05:17:35;1.10;;;0.70;;
71464;SDS011;59274;49.874;9.154;2023-05-10T05:20:01;1.43;;;1.00;;
71464;SDS011;59274;49.874;9.154;2023-05-10T05:22:28;2.33;;;0.80;;
71464;SDS011;59274;49.874;9.154;2023-05-10T05:24:53;1.23;;;0.90;;
71464;SDS011;59274;49.874;9.154;2023-05-10T05:27:20;1.38;;;0.95;;
71464;SDS011;59274;49.874;9.154;2023-05-10T05:29:52;1.70;;;0.90;;
71464;SDS011;59274;49.874;9.154;2023-05-10T05:32:18;1.40;;;0.90;;
71464;SDS011;59274;49.874;9.154;2023-05-10T05:34:44;1.47;;;1.03;;
71464;SDS011;59274;49.874;9.154;2023-05-10T05:37:14;5.38;;;1.63;;
71464;SDS011;59274;49.874;9.154;2023-05-10T05:39:40;1.23;;;0.93;;
71464;SDS011;59274;49.874;9.154;2023-05-10T05:42:06;4.33;;;1.50;;
71464;SDS011;59274;49.874;9.154;2023-05-10T05:44:31;1.57;;;1.23;;
71464;SDS011;59274;49.874;9.154;2023-05-10T05:46:57;1.55;;;1.00;;
71464;SDS011;59274;49.874;9.154;2023-05-10T05:49:22;1.80;;;1.00;;
71464;SDS011;59274;49.874;9.154;2023-05-10T05:51:48;2.30;;;1.33;;
71464;SDS011;59274;49.874;9.154;2023-05-10T05:54:15;1.73;;;1.05;;
71464;SDS011;59274;49.874;9.154;2023-05-10T05:56:40;2.33;;;1.20;;
71464;SDS011;59274;49.874;9.154;2023-05-10T05:59:06;1.53;;;1.20;;
71464;SDS011;59274;49.874;9.154;2023-05-10T06:01:31;4.07;;;1.38;;
71464;SDS011;59274;49.874;9.154;2023-05-10T06:03:56;1.70;;;1.20;;
71464;SDS011;59274;49.874;9.154;2023-05-10T06:06:22;0.70;;;0.70;;
71464;SDS011;59274;49.874;9.154;2023-05-10T06:08:47;1.03;;;0.90;;
71464;SDS011;59274;49.874;9.154;2023-05-10T06:11:13;2.95;;;1.33;;
71464;SDS011;59274;49.874;9.154;2023-05-10T06:13:38;2.67;;;1.00;;
71464;SDS011;59274;49.874;9.154;2023-05-10T06:16:04;3.07;;;1.17;;
71464;SDS011;59274;49.874;9.154;2023-05-10T06:18:29;2.38;;;1.40;;
71464;SDS011;59274;49.874;9.154;2023-05-10T06:20:55;1.90;;;1.30;;
71464;SDS011;59274;49.874;9.154;2023-05-10T06:23:20;1.50;;;1.07;;
71464;SDS011;59274;49.874;9.154;2023-05-10T06:25:47;2.92;;;1.17;;
71464;SDS011;59274;49.874;9.154;2023-05-10T06:28:12;3.77;;;1.10;;
71464;SDS011;59274;49.874;9.154;2023-05-10T06:30:38;1.80;;;0.77;;
71464;SDS011;59274;49.874;9.154;2023-05-10T06:33:03;1.50;;;1.10;;
71464;SDS011;59274;49.874;9.154;2023-05-10T06:35:28;0.82;;;0.75;;
71464;SDS011;59274;49.874;9.154;2023-05-10T06:37:54;1.60;;;1.13;;
71464;SDS011;59274;49.874;9.154;2023-05-10T06:40:20;1.77;;;1.10;;
71464;SDS011;59274;49.874;9.154;2023-05-10T06:42:47;1.45;;;1.10;;
71464;SDS011;59274;49.874;9.154;2023-05-10T06:45:13;1.85;;;1.20;;
71464;SDS011;59274;49.874;9.154;2023-05-10T06:47:39;2.57;;;1.07;;
71464;SDS011;59274;49.874;9.154;2023-05-10T06:50:05;2.17;;;0.95;;
71464;SDS011;59274;49.874;9.154;2023-05-10T06:52:32;2.78;;;1.15;;
71464;SDS011;59274;49.874;9.154;2023-05-10T06:54:57;1.50;;;1.00;;
71464;SDS011;59274;49.874;9.154;2023-05-10T06:57:23;2.33;;;1.20;;
71464;SDS011;59274;49.874;9.154;2023-05-10T06:59:49;1.77;;;1.10;;
71464;SDS011;59274;49.874;9.154;2023-05-10T07:02:14;2.38;;;1.15;;
71464;SDS011;59274;49.874;9.154;2023-05-10T07:04:40;2.05;;;1.33;;
71464;SDS011;59274;49.874;9.154;2023-05-10T07:07:05;1.70;;;1.30;;
71464;SDS011;59274;49.874;9.154;2023-05-10T07:09:31;2.00;;;1.43;;
71464;SDS011;59274;49.874;9.154;2023-05-10T07:11:56;2.53;;;1.20;;
71464;SDS011;59274;49.874;9.154;2023-05-10T07:14:22;1.85;;;1.10;;
71464;SDS011;59274;49.874;9.154;2023-05-10T07:16:48;2.67;;;1.50;;
71464;SDS011;59274;49.874;9.154;2023-05-10T07:19:13;2.05;;;1.30;;
71464;SDS011;59274;49.874;9.154;2023-05-10T07:21:39;0.82;;;0.63;;
71464;SDS011;59274;49.874;9.154;2023-05-10T07:24:07;1.38;;;1.00;;
71464;SDS011;59274;49.874;9.154;2023-05-10T07:26:33;1.33;;;0.97;;
71464;SDS011;59274;49.874;9.154;2023-05-10T07:28:58;1.87;;;1.20;;
71464;SDS011;59274;49.874;9.154;2023-05-10T07:31:23;1.93;;;1.10;;
71464;SDS011;59274;49.874;9.154;2023-05-10T07:33:49;1.58;;;0.98;;
71464;SDS011;59274;49.874;9.154;2023-05-10T07:36:14;1.30;;;1.10;;
71464;SDS011;59274;49.874;9.154;2023-05-10T07:38:40;3.07;;;1.20;;
71464;SDS011;59274;49.874;9.154;2023-05-10T07:41:05;1.73;;;1.40;;
71464;SDS011;59274;49.874;9.154;2023-05-10T07:43:31;2.97;;;1.52;;
71464;SDS011;59274;49.874;9.154;2023-05-10T07:45:56;1.80;;;1.10;;
71464;SDS011;59274;49.874;9.154;2023-05-10T07:48:22;1.73;;;1.00;;
71464;SDS011;59274;49.874;9.154;2023-05-10T07:50:48;1.73;;;1.00;;
71464;SDS011;59274;49.874;9.154;2023-05-10T07:53:13;1.67;;;1.00;;
71464;SDS011;59274;49.874;9.154;2023-05-10T07:55:39;1.27;;;1.10;;
71464;SDS011;59274;49.874;9.154;2023-05-10T07:58:04;0.80;;;0.80;;
71464;SDS011;59274;49.874;9.154;2023-05-10T08:00:29;1.40;;;1.00;;
71464;SDS011;59274;49.874;9.154;2023-05-10T08:02:55;2.17;;;1.30;;
71464;SDS011;59274;49.874;9.154;2023-05-10T08:05:20;1.63;;;1.13;;
71464;SDS011;59274;49.874;9.154;2023-05-10T08:07:46;2.17;;;1.10;;
71464;SDS011;59274;49.874;9.154;2023-05-10T08:10:11;3.25;;;1.30;;
71464;SDS011;59274;49.874;9.154;2023-05-10T08:12:37;1.33;;;1.10;;
71464;SDS011;59274;49.874;9.154;2023-05-10T08:15:03;1.75;;;1.20;;
71464;SDS011;59274;49.874;9.154;2023-05-10T08:17:29;1.70;;;1.30;;
71464;SDS011;59274;49.874;9.154;2023-05-10T08:19:54;2.17;;;1.17;;
71464;SDS011;59274;49.874;9.154;2023-05-10T08:22:20;2.33;;;1.30;;
71464;SDS011;59274;49.874;9.154;2023-05-10T08:24:45;4.43;;;1.53;;
71464;SDS011;59274;49.874;9.154;2023-05-10T08:27:10;2.20;;;1.40;;
71464;SDS011;59274;49.874;9.154;2023-05-10T08:29:36;2.20;;;1.40;;
71464;SDS011;59274;49.874;9.154;2023-05-10T08:32:02;1.90;;;1.30;;
71464;SDS011;59274;49.874;9.154;2023-05-10T08:34:28;1.80;;;1.23;;
71464;SDS011;59274;49.874;9.154;2023-05-10T08:36:53;1.57;;;1.20;;
71464;SDS011;59274;49.874;9.154;2023-05-10T08:39:18;2.43;;;1.30;;
71464;SDS011;59274;49.874;9.154;2023-05-10T08:41:44;2.37;;;1.17;;
71464;SDS011;59274;49.874;9.154;2023-05-10T08:44:11;1.00;;;0.80;;
71464;SDS011;59274;49.874;9.154;2023-05-10T08:46:37;2.90;;;1.40;;
71464;SDS011;59274;49.874;9.154;2023-05-10T08:49:09;1.97;;;1.07;;
71464;SDS011;59274;49.874;9.154;2023-05-10T08:51:40;1.67;;;1.05;;
71464;SDS011;59274;49.874;9.154;2023-05-10T08:54:08;2.90;;;1.25;;
71464;SDS011;59274;49.874;9.154;2023-05-10T08:56:34;2.05;;;1.20;;
71464;SDS011;59274;49.874;9.154;2023-05-10T08:59:01;3.20;;;1.00;;
71464;SDS011;59274;49.874;9.154;2023-05-10T09:01:26;3.28;;;1.15;;
71464;SDS011;59274;49.874;9.154;2023-05-10T09:03:53;2.35;;;1.45;;
71464;SDS011;59274;49.874;9.154;2023-05-10T09:06:18;1.60;;;1.23;;
71464;SDS011;59274;49.874;9.154;2023-05-10T09:08:44;3.67;;;1.10;;
71464;SDS011;59274;49.874;9.154;2023-05-10T09:11:10;1.42;;;1.10;;
71464;SDS011;59274;49.874;9.154;2023-05-10T09:13:36;1.75;;;1.00;;
71464;SDS011;59274;49.874;9.154;2023-05-10T09:16:03;1.60;;;1.00;;
71464;SDS011;59274;49.874;9.154;2023-05-10T09:18:29;2.05;;;1.20;;
71464;SDS011;59274;49.874;9.154;2023-05-10T09:20:55;1.13;;;0.98;;
71464;SDS011;59274;49.874;9.154;2023-05-10T09:23:20;3.83;;;1.20;;
71464;SDS011;59274;49.874;9.154;2023-05-10T09:25:46;1.83;;;1.20;;
71464;SDS011;59274;49.874;9.154;2023-05-10T09:28:12;2.15;;;1.10;;
71464;SDS011;59274;49.874;9.154;2023-05-10T09:30:38;1.73;;;0.93;;
71464;SDS011;59274;49.874;9.154;2023-05-10T09:33:04;1.17;;;1.00;;
71464;SDS011;59274;49.874;9.154;2023-05-10T09:35:30;4.78;;;1.30;;
71464;SDS011;59274;49.874;9.154;2023-05-10T09:37:58;1.48;;;1.13;;
71464;SDS011;59274;49.874;9.154;2023-05-10T09:40:25;2.00;;;1.20;;
71464;SDS011;59274;49.874;9.154;2023-05-10T09:42:53;1.60;;;1.30;;
71464;SDS011;59274;49.874;9.154;2023-05-10T09:45:25;1.27;;;1.10;;
71464;SDS011;59274;49.874;9.154;2023-05-10T09:47:54;1.92;;;1.15;;
71464;SDS011;59274;49.874;9.154;2023-05-10T09:50:20;2.00;;;1.23;;
71464;SDS011;59274;49.874;9.154;2023-05-10T09:52:50;1.35;;;1.10;;
71464;SDS011;59274;49.874;9.154;2023-05-10T09:55:17;2.47;;;1.17;;
71464;SDS011;59274;49.874;9.154;2023-05-10T09:57:45;1.55;;;1.10;;
71464;SDS011;59274;49.874;9.154;2023-05-10T10:00:12;2.20;;;1.23;;
71464;SDS011;59274;49.874;9.154;2023-05-10T10:02:55;1.30;;;1.08;;
71464;SDS011;59274;49.874;9.154;2023-05-10T10:05:28;1.33;;;1.08;;
71464;SDS011;59274;49.874;9.154;2023-05-10T10:07:58;1.50;;;1.20;;
71464;SDS011;59274;49.874;9.154;2023-05-10T10:10:25;1.60;;;1.20;;
71464;SDS011;59274;49.874;9.154;2023-05-10T10:12:51;1.80;;;1.10;;
71464;SDS011;59274;49.874;9.154;2023-05-10T10:15:17;2.20;;;1.30;;
71464;SDS011;59274;49.874;9.154;2023-05-10T10:17:43;1.60;;;1.05;;
71464;SDS011;59274;49.874;9.154;2023-05-10T10:20:09;1.37;;;1.20;;
71464;SDS011;59274;49.874;9.154;2023-05-10T10:22:34;1.20;;;1.00;;
71464;SDS011;59274;49.874;9.154;2023-05-10T10:25:01;2.63;;;1.13;;
71464;SDS011;59274;49.874;9.154;2023-05-10T10:27:36;1.10;;;1.00;;
71464;SDS011;59274;49.874;9.154;2023-05-10T10:33:30;0.80;;;0.70;;
71464;SDS011;59274;49.874;9.154;2023-05-10T10:36:04;1.17;;;1.00;;
71464;SDS011;59274;49.874;9.154;2023-05-10T10:39:15;2.00;;;1.27;;
71464;SDS011;59274;49.874;9.154;2023-05-10T10:44:40;2.13;;;1.30;;
71464;SDS011;59274;49.874;9.154;2023-05-10T10:57:52;1.60;;;0.87;;
71464;SDS011;59274;49.874;9.154;2023-05-10T11:00:26;1.20;;;0.80;;
71464;SDS011;59274;49.874;9.154;2023-05-10T11:05:46;0.90;;;0.80;;
71464;SDS011;59274;49.874;9.154;2023-05-10T11:08:26;0.90;;;0.82;;
71464;SDS011;59274;49.874;9.154;2023-05-10T11:13:31;1.40;;;0.90;;
71464;SDS011;59274;49.874;9.154;2023-05-10T11:15:57;1.63;;;1.00;;
71464;SDS011;59274;49.874;9.154;2023-05-10T11:18:27;1.15;;;0.90;;
71464;SDS011;59274;49.874;9.154;2023-05-10T11:20:56;1.38;;;0.90;;
71464;SDS011;59274;49.874;9.154;2023-05-10T11:23:31;1.00;;;0.90;;
71464;SDS011;59274;49.874;9.154;2023-05-10T11:26:14;1.80;;;1.05;;
71464;SDS011;59274;49.874;9.154;2023-05-10T11:28:44;1.60;;;1.10;;
71464;SDS011;59274;49.874;9.154;2023-05-10T11:31:10;0.93;;;0.82;;
71464;SDS011;59274;49.874;9.154;2023-05-10T11:33:43;2.13;;;1.30;;
71464;SDS011;59274;49.874;9.154;2023-05-10T11:36:17;2.38;;;1.20;;
71464;SDS011;59274;49.874;9.154;2023-05-10T11:38:45;1.70;;;1.02;;
71464;SDS011;59274;49.874;9.154;2023-05-10T11:41:12;1.50;;;1.10;;
71464;SDS011;59274;49.874;9.154;2023-05-10T11:43:38;1.50;;;1.08;;
71464;SDS011;59274;49.874;9.154;2023-05-10T11:46:05;2.25;;;1.10;;
71464;SDS011;59274;49.874;9.154;2023-05-10T11:48:31;1.77;;;1.30;;
71464;SDS011;59274;49.874;9.154;2023-05-10T11:50:57;1.40;;;1.10;;
71464;SDS011;59274;49.874;9.154;2023-05-10T11:53:23;1.42;;;1.13;;
71464;SDS011;59274;49.874;9.154;2023-05-10T11:55:51;2.03;;;1.40;;
71464;SDS011;59274;49.874;9.154;2023-05-10T11:58:17;2.13;;;1.20;;
71464;SDS011;59274;49.874;9.154;2023-05-10T12:00:43;2.30;;;1.20;;
71464;SDS011;59274;49.874;9.154;2023-05-10T12:03:10;1.60;;;1.17;;
71464;SDS011;59274;49.874;9.154;2023-05-10T12:05:36;1.20;;;1.02;;
71464;SDS011;59274;49.874;9.154;2023-05-10T12:08:12;1.70;;;1.30;;
71464;SDS011;59274;49.874;9.154;2023-05-10T12:10:39;2.40;;;0.80;;
71464;SDS011;59274;49.874;9.154;2023-05-10T12:13:04;1.80;;;1.10;;
71464;SDS011;59274;49.874;9.154;2023-05-10T12:15:30;2.20;;;1.10;;
71464;SDS011;59274;49.874;9.154;2023-05-10T12:17:55;1.10;;;0.75;;
71464;SDS011;59274;49.874;9.154;2023-05-10T12:20:22;1.80;;;1.00;;
71464;SDS011;59274;49.874;9.154;2023-05-10T12:22:56;1.45;;;1.00;;
71464;SDS011;59274;49.874;9.154;2023-05-10T12:25:30;1.67;;;1.08;;
71464;SDS011;59274;49.874;9.154;2023-05-10T12:27:58;1.80;;;1.20;;
71464;SDS011;59274;49.874;9.154;2023-05-10T12:30:30;1.52;;;1.13;;
71464;SDS011;59274;49.874;9.154;2023-05-10T12:35:46;2.30;;;0.88;;
71464;SDS011;59274;49.874;9.154;2023-05-10T12:38:25;1.52;;;1.15;;
71464;SDS011;59274;49.874;9.154;2023-05-10T12:40:54;1.40;;;1.08;;
71464;SDS011;59274;49.874;9.154;2023-05-10T12:43:23;1.83;;;1.15;;
71464;SDS011;59274;49.874;9.154;2023-05-10T12:45:49;1.97;;;1.10;;
71464;SDS011;59274;49.874;9.154;2023-05-10T12:48:14;1.70;;;0.90;;
71464;SDS011;59274;49.874;9.154;2023-05-10T12:50:40;1.55;;;1.10;;
71464;SDS011;59274;49.874;9.154;2023-05-10T12:53:05;1.10;;;1.00;;
71464;SDS011;59274;49.874;9.154;2023-05-10T12:55:31;1.07;;;0.90;;
71464;SDS011;59274;49.874;9.154;2023-05-10T12:57:57;1.73;;;1.02;;
71464;SDS011;59274;49.874;9.154;2023-05-10T13:00:22;1.47;;;1.07;;
71464;SDS011;59274;49.874;9.154;2023-05-10T13:02:48;1.73;;;1.02;;
71464;SDS011;59274;49.874;9.154;2023-05-10T13:05:14;1.17;;;0.97;;
71464;SDS011;59274;49.874;9.154;2023-05-10T13:07:39;2.37;;;0.97;;
71464;SDS011;59274;49.874;9.154;2023-05-10T13:10:05;0.98;;;0.80;;
71464;SDS011;59274;49.874;9.154;2023-05-10T13:12:31;1.47;;;0.87;;
71464;SDS011;59274;49.874;9.154;2023-05-10T13:14:56;1.00;;;0.88;;
71464;SDS011;59274;49.874;9.154;2023-05-10T13:17:22;1.30;;;1.00;;
71464;SDS011;59274;49.874;9.154;2023-05-10T13:19:47;1.33;;;1.10;;
71464;SDS011;59274;49.874;9.154;2023-05-10T13:22:13;1.63;;;1.10;;
71464;SDS011;59274;49.874;9.154;2023-05-10T13:24:38;1.48;;;1.10;;
71464;SDS011;59274;49.874;9.154;2023-05-10T13:27:04;1.03;;;0.90;;
71464;SDS011;59274;49.874;9.154;2023-05-10T13:29:29;1.37;;;0.90;;
71464;SDS011;59274;49.874;9.154;2023-05-10T13:31:55;1.15;;;1.00;;
71464;SDS011;59274;49.874;9.154;2023-05-10T13:34:21;1.20;;;1.00;;
71464;SDS011;59274;49.874;9.154;2023-05-10T13:36:46;1.37;;;1.20;;
71464;SDS011;59274;49.874;9.154;2023-05-10T13:39:12;2.17;;;1.27;;
71464;SDS011;59274;49.874;9.154;2023-05-10T13:41:38;2.08;;;1.25;;
71464;SDS011;59274;49.874;9.154;2023-05-10T13:44:03;3.20;;;1.30;;
71464;SDS011;59274;49.874;9.154;2023-05-10T13:46:29;1.70;;;1.00;;
71464;SDS011;59274;49.874;9.154;2023-05-10T13:48:55;1.92;;;0.90;;
71464;SDS011;59274;49.874;9.154;2023-05-10T13:51:21;1.38;;;1.10;;
71464;SDS011;59274;49.874;9.154;2023-05-10T13:53:47;0.90;;;0.80;;
71464;SDS011;59274;49.874;9.154;2023-05-10T13:56:13;1.52;;;1.20;;
71464;SDS011;59274;49.874;9.154;2023-05-10T13:58:39;1.97;;;1.10;;
71464;SDS011;59274;49.874;9.154;2023-05-10T14:01:04;1.48;;;1.10;;
71464;SDS011;59274;49.874;9.154;2023-05-10T14:03:30;1.60;;;1.03;;
71464;SDS011;59274;49.874;9.154;2023-05-10T14:05:55;1.30;;;0.90;;
71464;SDS011;59274;49.874;9.154;2023-05-10T14:08:21;1.50;;;0.80;;
71464;SDS011;59274;49.874;9.154;2023-05-10T14:10:47;1.38;;;1.05;;
71464;SDS011;59274;49.874;9.154;2023-05-10T14:13:13;1.30;;;0.90;;
71464;SDS011;59274;49.874;9.154;2023-05-10T14:15:40;2.15;;;1.30;;
71464;SDS011;59274;49.874;9.154;2023-05-10T14:18:05;1.80;;;1.00;;
71464;SDS011;59274;49.874;9.154;2023-05-10T14:20:31;1.02;;;0.82;;
71464;SDS011;59274;49.874;9.154;2023-05-10T14:22:59;2.05;;;1.10;;
71464;SDS011;59274;49.874;9.154;2023-05-10T14:25:25;1.65;;;1.05;;
71464;SDS011;59274;49.874;9.154;2023-05-10T14:27:50;4.18;;;1.20;;
71464;SDS011;59274;49.874;9.154;2023-05-10T14:30:16;2.17;;;1.30;;
71464;SDS011;59274;49.874;9.154;2023-05-10T14:32:41;2.45;;;1.20;;
71464;SDS011;59274;49.874;9.154;2023-05-10T14:35:07;1.23;;;1.10;;
71464;SDS011;59274;49.874;9.154;2023-05-10T14:37:33;1.73;;;1.10;;
71464;SDS011;59274;49.874;9.154;2023-05-10T14:39:58;2.88;;;0.88;;
71464;SDS011;59274;49.874;9.154;2023-05-10T14:42:24;2.93;;;1.27;;
71464;SDS011;59274;49.874;9.154;2023-05-10T14:44:49;4.60;;;1.13;;
71464;SDS011;59274;49.874;9.154;2023-05-10T14:47:14;3.60;;;1.13;;
71464;SDS011;59274;49.874;9.154;2023-05-10T14:49:40;2.85;;;1.33;;
71464;SDS011;59274;49.874;9.154;2023-05-10T14:52:06;2.08;;;1.20;;
71464;SDS011;59274;49.874;9.154;2023-05-10T14:54:31;1.80;;;1.00;;
71464;SDS011;59274;49.874;9.154;2023-05-10T14:56:58;2.50;;;1.40;;
71464;SDS011;59274;49.874;9.154;2023-05-10T14:59:24;1.55;;;1.00;;
71464;SDS011;59274;49.874;9.154;2023-05-10T15:01:49;1.53;;;1.20;;
71464;SDS011;59274;49.874;9.154;2023-05-10T15:04:14;1.40;;;1.10;;
71464;SDS011;59274;49.874;9.154;2023-05-10T15:06:41;1.38;;;1.20;;
71464;SDS011;59274;49.874;9.154;2023-05-10T15:09:07;2.08;;;1.40;;
71464;SDS011;59274;49.874;9.154;2023-05-10T15:11:32;2.55;;;1.35;;
71464;SDS011;59274;49.874;9.154;2023-05-10T15:13:58;2.67;;;1.20;;
71464;SDS011;59274;49.874;9.154;2023-05-10T15:16:23;2.07;;;1.40;;
71464;SDS011;59274;49.874;9.154;2023-05-10T15:18:49;1.42;;;1.17;;
71464;SDS011;59274;49.874;9.154;2023-05-10T15:21:14;1.00;;;0.90;;
71464;SDS011;59274;49.874;9.154;2023-05-10T15:23:40;1.10;;;1.00;;
71464;SDS011;59274;49.874;9.154;2023-05-10T15:26:05;1.20;;;1.10;;
71464;SDS011;59274;49.874;9.154;2023-05-10T15:28:31;2.22;;;1.02;;
71464;SDS011;59274;49.874;9.154;2023-05-10T15:30:56;1.50;;;1.40;;
71464;SDS011;59274;49.874;9.154;2023-05-10T15:33:22;1.87;;;1.13;;